createdAt,value
2022-09-15T00:04:27.861Z,97006.91
2022-09-15T00:09:30.508Z,96898.88
2022-09-15T00:14:33.205Z,97018.41
2022-09-15T00:19:36.559Z,97002.50
2022-09-15T00:24:39.604Z,96986.94
2022-09-15T00:29:42.255Z,96922.94
2022-09-15T00:34:45.305Z,96891.47
2022-09-15T00:39:48.264Z,96973.91
2022-09-15T00:44:57.265Z,96941.94
2022-09-15T00:50:06.172Z,96953.41
2022-09-15T00:55:43.817Z,96989.28
2022-09-15T01:00:56.191Z,97011.63
2022-09-15T01:06:13.850Z,96947.97
2022-09-15T01:11:17.887Z,96995.38
2022-09-15T01:16:29.719Z,97012.59
2022-09-15T01:21:58.854Z,96989.88
2022-09-15T01:27:41.532Z,96990.97
2022-09-15T01:33:05.778Z,97002.44
2022-09-15T01:38:21.834Z,97006.16
2022-09-15T01:43:27.005Z,97015.97
2022-09-15T01:48:31.125Z,96986.28
2022-09-15T01:53:34.851Z,96982.03
2022-09-15T01:58:41.041Z,97001.31
2022-09-15T02:04:03.221Z,96929.59
2022-09-15T02:09:29.379Z,96922.72
2022-09-15T02:14:44.434Z,96989.78
2022-09-15T02:19:55.289Z,96983.16
2022-09-15T02:25:03.797Z,97004.75
2022-09-15T02:30:12.525Z,97002.06
2022-09-15T02:35:16.759Z,96998.97
2022-09-15T02:40:20.153Z,96909.69
2022-09-15T02:45:23.918Z,96842.81
2022-09-15T02:50:27.561Z,96961.19
2022-09-15T02:55:30.326Z,96918.13
2022-09-15T03:00:33.354Z,96831.72
2022-09-15T03:05:36.137Z,96918.63
2022-09-15T03:10:38.790Z,96898.69
2022-09-15T03:15:41.457Z,96894.84
2022-09-15T03:20:44.510Z,96749.31
2022-09-15T03:25:47.342Z,96749.63
2022-09-15T03:30:50.152Z,96793.47
2022-09-15T03:35:54.272Z,96837.38
2022-09-15T03:41:15.196Z,96868.44
2022-09-15T03:46:18.823Z,96898.69
2022-09-15T03:51:22.850Z,96869.06
2022-09-15T03:56:32.206Z,96884.66
2022-09-15T04:01:35.742Z,96894.66
2022-09-15T04:06:39.329Z,96869.19
2022-09-15T04:11:41.991Z,96705.16
2022-09-15T04:16:44.758Z,96850.88
2022-09-15T04:21:48.356Z,96873.06
2022-09-15T04:26:51.091Z,96707.00
2022-09-15T04:31:54.591Z,96741.88
2022-09-15T04:36:57.781Z,96858.03
2022-09-15T04:42:00.728Z,96869.50
2022-09-15T04:47:03.531Z,96889.63
2022-09-15T04:52:09.646Z,96788.53
2022-09-15T04:57:12.936Z,96774.69
2022-09-15T05:02:15.873Z,96843.81
2022-09-15T05:07:20.159Z,96907.94
2022-09-15T05:12:22.904Z,96911.50
2022-09-15T05:17:26.829Z,96794.78
2022-09-15T05:22:29.669Z,96883.03
2022-09-15T05:27:34.592Z,96784.75
2022-09-15T05:32:37.252Z,96767.66
2022-09-15T05:37:40.061Z,96927.03
2022-09-15T05:42:42.701Z,96906.69
2022-09-15T05:47:45.424Z,96883.53
2022-09-15T05:52:52.070Z,96935.16
2022-09-15T05:58:02.680Z,96952.22
2022-09-15T06:03:05.472Z,96881.44
2022-09-15T06:08:08.307Z,96817.91
2022-09-15T06:13:11.210Z,96949.19
2022-09-15T06:18:14.609Z,96961.22
2022-09-15T06:23:17.244Z,96846.31
2022-09-15T06:28:20.375Z,96948.75
2022-09-15T06:33:23.050Z,96836.88
2022-09-15T06:38:25.705Z,96818.69
2022-09-15T06:43:28.434Z,96812.63
2022-09-15T06:48:33.322Z,96780.84
2022-09-15T06:53:37.620Z,96841.38
2022-09-15T06:58:42.193Z,96918.00
2022-09-15T07:03:45.677Z,96861.84
2022-09-15T07:08:51.281Z,96925.19
2022-09-15T07:13:55.529Z,96917.25
2022-09-15T07:19:01.434Z,96823.97
2022-09-15T07:24:07.366Z,96905.97
2022-09-15T07:29:10.926Z,96917.31
2022-09-15T07:34:13.599Z,96711.78
2022-09-15T07:39:16.236Z,96878.25
2022-09-15T07:44:18.863Z,96851.34
2022-09-15T07:49:21.481Z,96889.97
2022-09-15T07:54:24.512Z,96800.94
2022-09-15T07:59:28.502Z,96917.97
2022-09-15T08:04:32.408Z,96922.88
2022-09-15T08:09:35.130Z,96884.84
2022-09-15T08:14:37.811Z,96889.22
2022-09-15T08:19:40.668Z,96878.06
2022-09-15T08:24:43.326Z,96838.72
2022-09-15T08:29:45.955Z,96808.78
2022-09-15T08:34:48.876Z,96876.06
2022-09-15T08:39:52.836Z,96840.06
2022-09-15T08:45:03.254Z,96905.16
2022-09-15T08:50:24.539Z,96922.59
2022-09-15T08:55:27.147Z,97025.13
2022-09-15T09:00:30.893Z,97041.97
2022-09-15T09:05:46.687Z,97078.97
2022-09-15T09:11:12.863Z,97087.09
2022-09-15T09:16:51.864Z,96982.88
2022-09-15T09:22:03.644Z,97020.97
2022-09-15T09:27:10.966Z,96955.03
2022-09-15T09:32:34.870Z,96973.66
2022-09-15T09:37:37.698Z,96935.47
2022-09-15T09:42:41.528Z,96924.75
2022-09-15T09:47:44.279Z,96912.41
2022-09-15T09:52:46.898Z,96886.69
2022-09-15T09:57:50.809Z,96868.19
2022-09-15T10:03:10.765Z,96887.56
2022-09-15T10:08:21.436Z,96912.38
2022-09-15T10:13:24.300Z,96820.94
2022-09-15T10:18:38.976Z,96850.16
2022-09-15T10:23:41.881Z,96820.81
2022-09-15T10:28:46.030Z,96855.22
2022-09-15T10:33:48.795Z,96859.78
2022-09-15T10:39:19.824Z,96886.50
2022-09-15T10:44:42.777Z,96863.31
2022-09-15T10:50:08.096Z,96896.88
2022-09-15T10:55:51.532Z,96904.34
2022-09-15T11:01:30.719Z,96905.75
2022-09-15T11:06:42.926Z,96868.28
2022-09-15T11:12:14.818Z,96856.78
2022-09-15T11:17:22.377Z,96834.44
2022-09-15T11:22:32.552Z,96844.44
2022-09-15T11:28:08.417Z,96838.94
2022-09-15T11:33:17.510Z,96815.19
2022-09-15T11:38:51.053Z,96804.72
2022-09-15T11:44:02.522Z,96802.13
2022-09-15T11:49:17.933Z,96780.13
2022-09-15T11:54:35.433Z,96786.50
2022-09-15T12:00:00.162Z,96807.09
2022-09-15T12:05:21.788Z,96788.53
2022-09-15T12:10:32.938Z,96783.03
2022-09-15T12:15:36.095Z,96767.78
2022-09-15T12:20:49.573Z,96757.50
2022-09-15T12:26:15.030Z,96795.16
2022-09-15T12:31:35.340Z,96767.31
2022-09-15T12:36:45.385Z,96785.75
2022-09-15T12:41:50.794Z,96715.53
2022-09-15T12:46:56.786Z,96752.63
2022-09-15T12:52:01.270Z,96649.28
2022-09-15T12:57:04.445Z,96753.53
2022-09-15T13:02:48.828Z,96762.56
2022-09-15T13:07:55.843Z,96745.50
2022-09-15T13:13:35.781Z,96739.34
2022-09-15T13:18:44.364Z,96734.41
2022-09-15T13:23:51.598Z,96742.34
2022-09-15T13:28:56.452Z,96681.75
2022-09-15T13:40:13.808Z,96705.22
2022-09-15T13:45:38.628Z,96697.75
2022-09-15T13:50:45.429Z,96608.28
2022-09-15T13:55:49.397Z,96578.06
2022-09-15T14:00:52.822Z,96674.00
2022-09-15T14:05:57.604Z,96662.19
2022-09-15T14:11:09.350Z,96636.91
2022-09-15T14:16:27.348Z,96662.78
2022-09-15T14:21:35.389Z,96580.19
2022-09-15T14:26:39.000Z,96572.72
2022-09-15T14:31:42.114Z,96581.44
2022-09-15T14:36:45.033Z,96485.19
2022-09-15T14:41:49.598Z,96622.03
2022-09-15T14:46:53.387Z,96526.16
2022-09-15T14:51:56.155Z,96492.56
2022-09-15T14:57:02.318Z,96472.50
2022-09-15T15:02:39.349Z,96631.00
2022-09-15T15:07:43.987Z,96500.06
2022-09-15T15:12:51.775Z,96580.66
2022-09-15T15:17:58.078Z,96604.53
2022-09-15T15:23:24.803Z,96599.00
2022-09-15T15:28:38.265Z,96651.44
2022-09-15T15:34:00.116Z,96652.88
2022-09-15T15:39:06.538Z,96637.75
2022-09-15T15:44:15.387Z,96635.97
2022-09-15T15:49:19.407Z,96607.50
2022-09-15T15:54:22.732Z,96617.06
2022-09-15T15:59:25.386Z,96635.97
2022-09-15T16:04:29.586Z,96601.59
2022-09-15T16:09:33.342Z,96607.50
2022-09-15T16:14:36.585Z,96611.75
2022-09-15T16:19:39.269Z,96592.69
2022-09-15T16:24:42.081Z,96469.72
2022-09-15T16:29:46.383Z,96591.69
2022-09-15T16:34:52.007Z,96623.94
2022-09-15T16:39:55.606Z,96589.47
2022-09-15T16:44:59.492Z,96632.06
2022-09-15T16:50:02.430Z,96464.72
2022-09-15T16:55:21.464Z,96578.56
2022-09-15T17:00:24.662Z,96511.09
2022-09-15T17:05:48.281Z,96637.28
2022-09-15T17:10:51.707Z,96586.88
2022-09-15T17:15:55.006Z,96590.22
2022-09-15T17:20:58.098Z,96641.91
2022-09-15T17:26:03.697Z,96645.19
2022-09-15T17:31:13.961Z,96658.28
2022-09-15T17:36:17.508Z,96675.19
2022-09-15T17:41:22.349Z,96629.19
2022-09-15T17:46:25.220Z,96687.94
2022-09-15T17:51:27.911Z,96635.59
2022-09-15T17:56:30.591Z,96556.69
2022-09-15T18:01:33.707Z,96519.59
2022-09-15T18:06:40.229Z,96625.34
2022-09-15T18:11:45.108Z,96679.69
2022-09-15T18:16:48.850Z,96669.41
2022-09-15T18:21:54.286Z,96644.13
2022-09-15T18:26:56.994Z,96645.78
2022-09-15T18:32:00.154Z,96638.72
2022-09-15T18:37:03.422Z,96678.69
2022-09-15T18:42:06.965Z,96589.94
2022-09-15T18:47:09.570Z,96629.44
2022-09-15T18:52:14.149Z,96665.69
2022-09-15T18:57:20.071Z,96714.81
2022-09-15T19:02:23.007Z,96710.28
2022-09-15T19:07:28.398Z,96725.31
2022-09-15T19:12:32.494Z,96743.19
2022-09-15T19:17:35.464Z,96737.41
2022-09-15T19:22:38.498Z,96728.56
2022-09-15T19:27:42.589Z,96754.91
2022-09-15T19:32:46.505Z,96699.78
2022-09-15T19:37:49.636Z,96739.31
2022-09-15T19:42:52.362Z,96735.28
2022-09-15T19:47:55.341Z,96746.22
2022-09-15T19:52:59.702Z,96729.97
2022-09-15T19:58:02.777Z,96707.50
2022-09-15T20:03:05.501Z,96717.00
2022-09-15T20:08:08.120Z,96708.53
2022-09-15T20:13:11.021Z,96726.47
2022-09-15T20:18:14.221Z,96624.84
2022-09-15T20:23:17.318Z,96766.53
2022-09-15T20:28:21.826Z,96727.50
2022-09-15T20:33:27.191Z,96757.84
2022-09-15T20:38:32.530Z,96712.31
2022-09-15T20:43:38.486Z,96790.25
2022-09-15T20:48:42.462Z,96805.41
2022-09-15T20:53:46.952Z,96819.94
2022-09-15T20:58:50.832Z,96751.47
2022-09-15T21:03:56.693Z,96819.41
2022-09-15T21:09:00.372Z,96801.44
2022-09-15T21:14:04.113Z,96807.09
2022-09-15T21:19:09.893Z,96816.69
2022-09-15T21:24:13.303Z,96802.94
2022-09-15T21:29:17.226Z,96815.09
2022-09-15T21:34:21.026Z,96663.81
2022-09-15T21:39:24.526Z,96792.50
2022-09-15T21:44:28.146Z,96785.78
2022-09-15T21:49:32.174Z,96764.47
2022-09-15T21:54:47.456Z,96780.44
2022-09-15T21:59:50.931Z,96815.75
2022-09-15T22:04:55.527Z,96834.06
2022-09-15T22:09:58.929Z,96767.22
2022-09-15T22:15:02.777Z,96768.94
2022-09-15T22:20:10.095Z,96744.91
2022-09-15T22:25:15.056Z,96773.28
2022-09-15T22:30:20.081Z,96658.19
2022-09-15T22:35:25.988Z,96753.47
2022-09-15T22:40:30.267Z,96797.22
2022-09-15T22:45:33.847Z,96802.63
2022-09-15T22:50:37.365Z,96798.41
2022-09-15T22:55:40.984Z,96734.91
2022-09-15T23:00:45.931Z,96741.94
2022-09-15T23:05:57.798Z,96733.03
2022-09-15T23:11:13.105Z,96830.47
2022-09-15T23:16:17.852Z,96821.44
2022-09-15T23:21:22.551Z,96836.28
2022-09-15T23:26:27.864Z,96822.69
2022-09-15T23:31:35.824Z,96822.94
2022-09-15T23:36:39.300Z,96812.44
2022-09-15T23:41:47.718Z,96641.28
2022-09-15T23:46:51.320Z,96739.06
2022-09-15T23:51:54.784Z,96802.50
2022-09-15T23:56:58.229Z,96803.00
